Date,TemperatureHighF,TemperatureAvgF,TemperatureLowF,DewpointHighF,DewpointAvgF,DewpointLowF,HumidityHigh,HumidityAvg,HumidityLow,PressureMaxIn,PressureMinIn,WindSpeedMaxMPH,WindSpeedAvgMPH,GustSpeedMaxMPH,PrecipitationSumIn
2013-1-1,39,38,36,-100,-100,-100,0,0,100,29.23,29.05,19,0,30,0.00
2013-1-2,39,36,34,-100,-100,-100,0,0,100,29.34,29.19,15,5,22,0.00
2013-1-3,38,34,32,-100,-100,-100,0,0,100,29.54,29.29,12,-63,19,0.00
2013-1-4,37,34,32,-100,-100,-100,0,0,100,29.72,29.53,6,-140,12,0.00
2013-1-5,38,36,34,-100,-100,-100,0,0,100,29.59,29.10,13,-143,26,0.00
2013-1-6,37,32,31,-100,-100,-100,0,0,100,29.28,28.74,14,-25,21,0.00
2013-1-7,39,37,36,-100,-100,-100,0,0,100,29.39,28.74,27,12,40,0.00
2013-1-8,37,35,32,-100,-100,-100,0,0,100,30.03,29.38,36,14,51,0.00
2013-1-9,39,24,28,-100,-100,-100,0,0,100,30.09,29.83,14,-16,17,0.00
2013-1-10,38,26,30,-100,-100,-100,0,0,100,30.09,29.71,13,-60,24,0.00
2013-1-11,42,38,33,-100,-100,-100,0,0,100,30.08,29.66,16,-16,35,0.00
2013-1-12,43,38,35,-100,-100,-100,0,0,100,30.03,29.78,9,-78,12,0.00
2013-1-13,45,42,39,-100,-100,-100,0,0,100,29.84,29.62,10,-153,15,0.00
2013-1-14,45,41,33,-100,-100,-100,0,0,100,30.06,29.51,28,-44,36,0.00
2013-1-15,37,25,29,-100,-100,-100,0,0,100,30.23,30.05,6,-104,8,0.00
2013-1-16,40,30,28,-100,-100,-100,0,0,100,30.15,29.71,21,-36,28,0.00
2013-1-17,30,9,21,-100,-100,-100,0,0,100,29.94,29.68,19,6,26,0.00
2013-1-18,38,18,21,-100,-100,-100,0,0,100,30.06,29.94,14,-10,20,0.00
2013-1-19,40,38,37,-100,-100,-100,0,0,100,29.97,29.58,22,4,28,0.00
2013-1-20,40,37,34,-100,-100,-100,0,0,100,29.78,29.65,8,-202,12,0.00
2013-1-21,41,39,35,-100,-100,-100,0,0,100,29.78,29.38,20,11,34,0.00
2013-1-22,41,40,39,-100,-100,-100,0,0,100,29.39,29.22,20,13,30,0.00
2013-1-23,41,40,39,-100,-100,-100,0,0,100,29.22,29.05,19,13,38,0.00
2013-1-24,40,38,36,-100,-100,-100,0,0,100,29.51,29.15,12,-3,17,0.00
2013-1-25,37,20,26,-100,-100,-100,0,0,100,29.62,29.48,18,-3,25,0.00
2013-1-26,27,8,23,-100,-100,-100,0,0,100,29.90,29.62,18,10,29,0.00
2013-1-27,25,9,15,-100,-100,-100,0,0,100,30.05,29.90,19,9,25,0.00
2013-1-28,30,8,14,-100,-100,-100,0,0,100,30.05,29.48,21,13,32,0.00
2013-1-29,36,34,32,-100,-100,-100,0,0,100,29.62,29.44,18,-20,25,0.00
2013-1-30,42,39,34,-100,-100,-100,0,0,100,29.63,29.49,9,-70,15,0.00
2013-1-31,38,34,32,-100,-100,-100,0,0,100,29.83,29.75,15,-75,21,0.00
2013-2-1,39,38,36,-100,-100,-100,0,0,100,29.78,29.52,22,9,30,0.00
2013-2-2,39,38,36,-100,-100,-100,0,0,100,29.52,29.05,19,-34,29,0.00
2013-2-3,40,39,37,-100,-100,-100,0,0,100,29.35,29.05,12,-1,18,0.00
2013-2-4,40,38,37,-100,-100,-100,0,0,100,29.56,29.35,9,-11,15,0.00
2013-2-5,43,37,32,-100,-100,-100,0,0,100,29.56,29.51,9,-84,11,0.00
2013-2-6,37,13,25,-100,-100,-100,0,0,100,29.64,29.53,16,-16,23,0.00
2013-2-7,44,25,24,-100,-100,-100,0,0,100,29.57,29.17,9,-24,11,0.00
2013-2-8,40,33,32,-100,-100,-100,0,0,100,29.66,29.40,15,-53,28,0.00
2013-2-9,43,39,35,-100,-100,-100,0,0,100,29.45,28.79,17,-1,29,0.00
2013-2-10,42,33,29,-100,-100,-100,0,0,100,29.64,28.85,28,10,36,0.00
2013-2-11,37,18,23,-100,-100,-100,0,0,100,29.75,29.63,12,-17,16,0.00
2013-2-12,44,36,33,-100,-100,-100,0,0,100,29.76,29.54,11,-24,16,0.00
2013-2-13,38,27,29,-100,-100,-100,0,0,100,29.77,29.41,17,-1,28,0.00
2013-2-14,41,38,35,-100,-100,-100,0,0,100,29.52,29.07,20,-62,37,0.00
2013-2-15,35,17,25,-100,-100,-100,0,0,100,30.04,29.52,30,-8,48,0.00
2013-2-16,33,13,23,-100,-100,-100,0,0,100,30.07,29.48,8,-114,9,0.00
2013-2-17,37,17,28,-100,-100,-100,0,0,100,29.76,29.49,31,2,55,0.00
2013-2-18,36,20,27,-100,-100,-100,0,0,100,29.86,29.75,22,2,43,0.00
2013-2-19,34,22,26,-100,-100,-100,0,0,100,29.77,28.96,13,-10,22,0.00
2013-2-20,38,28,32,-100,-100,-100,0,0,100,29.28,28.90,22,-92,40,0.00
2013-2-21,33,10,24,-100,-100,-100,0,0,100,29.34,29.09,26,0,38,0.00
2013-2-22,36,24,29,-100,-100,-100,0,0,100,29.53,29.22,24,10,32,0.00
2013-2-23,38,32,30,-100,-100,-100,0,0,100,29.26,29.02,16,-13,22,0.00
2013-2-24,41,36,32,-100,-100,-100,0,0,100,29.57,29.18,16,-44,27,0.00
2013-2-25,37,28,30,-100,-100,-100,0,0,100,29.57,29.15,28,-10,41,0.00
2013-2-26,40,37,35,-100,-100,-100,0,0,100,29.19,29.08,26,-10,41,0.00
2013-2-27,39,35,33,-100,-100,-100,0,0,100,29.20,29.05,13,-72,17,0.00
2013-2-28,38,26,28,-100,-100,-100,0,0,100,29.48,29.20,15,-16,21,0.00
2013-3-1,40,22,26,-100,-100,-100,0,0,100,29.92,29.47,16,4,19,0.00
2013-3-2,37,25,26,-100,-100,-100,0,0,100,29.93,29.82,18,-3,28,0.00
2013-3-3,40,37,35,-100,-100,-100,0,0,100,30.18,29.81,24,14,39,0.00
2013-3-4,40,39,37,-100,-100,-100,0,0,100,30.34,30.17,7,-18,13,0.00
2013-3-5,40,37,36,-100,-100,-100,0,0,100,30.25,29.89,10,-45,15,0.00
2013-3-6,42,38,34,-100,-100,-100,0,0,100,29.90,29.63,13,-124,20,0.00
2013-3-7,42,38,32,-100,-100,-100,0,0,100,29.62,29.13,22,-28,31,0.00
2013-3-8,40,38,34,-100,-100,-100,0,0,100,29.67,29.35,17,8,28,0.00
2013-3-9,37,35,32,-100,-100,-100,0,0,100,30.20,29.67,19,-42,26,0.00
2013-3-10,40,30,30,-100,-100,-100,0,0,100,30.24,30.08,25,-12,44,0.00
2013-3-11,38,29,31,-100,-100,-100,0,0,100,30.28,30.19,23,11,34,0.00
2013-3-12,37,30,31,-100,-100,-100,0,0,100,30.20,29.95,26,12,37,0.00
2013-3-13,38,16,28,-100,-100,-100,0,0,100,29.95,29.70,15,0,21,0.00
2013-3-14,35,20,24,-100,-100,-100,0,0,100,29.70,29.61,15,-9,24,0.00
2013-3-15,38,20,27,-100,-100,-100,0,0,100,29.80,29.62,19,-81,25,0.00
2013-3-16,39,22,25,-100,-100,-100,0,0,100,30.14,29.80,12,-34,20,0.00
2013-3-17,37,27,30,-100,-100,-100,0,0,100,30.22,30.09,16,7,25,0.00
2013-3-18,35,22,29,-100,-100,-100,0,0,100,30.09,29.91,20,9,35,0.00
2013-3-19,31,8,26,-100,-100,-100,0,0,100,29.92,29.87,20,10,37,0.00
2013-3-20,35,16,25,-100,-100,-100,0,0,100,30.06,29.91,24,12,51,0.00
2013-3-21,37,20,26,-100,-100,-100,0,0,100,30.21,30.05,15,6,25,0.00
2013-3-22,40,37,35,-100,-100,-100,0,0,100,30.11,29.86,17,9,21,0.00
2013-3-23,41,33,31,-100,-100,-100,0,0,100,29.87,29.71,8,-126,11,0.00
2013-3-24,35,23,31,-100,-100,-100,0,0,100,29.71,29.58,32,14,46,0.00
2013-3-25,30,7,15,-100,-100,-100,0,0,100,29.90,29.58,32,13,44,0.00
2013-3-26,31,6,15,-100,-100,-100,0,0,100,30.14,29.89,15,-10,20,0.00
2013-3-27,38,18,24,-100,-100,-100,0,0,100,30.15,30.00,9,-44,10,0.00
2013-3-28,39,37,35,-100,-100,-100,0,0,100,30.00,29.61,6,-18,14,0.00
2013-3-29,48,39,35,-100,-100,-100,0,0,100,29.94,29.64,10,-206,12,0.00
2013-3-30,42,38,35,-100,-100,-100,0,0,100,30.18,29.94,12,-100,16,0.00
2013-3-31,41,33,30,-100,-100,-100,0,0,100,30.19,30.14,10,-86,13,0.00
2013-4-1,43,38,32,-100,-100,-100,0,0,100,30.14,30.04,13,-23,17,0.00
2013-4-2,43,32,30,-100,-100,-100,0,0,100,30.12,30.07,11,-4,15,0.00
2013-4-3,40,37,33,-100,-100,-100,0,0,100,30.13,30.09,13,-58,21,0.00
2013-4-4,40,38,35,-100,-100,-100,0,0,100,30.09,29.69,17,10,23,0.00
2013-4-5,41,38,34,-100,-100,-100,0,0,100,29.70,29.46,13,7,19,0.00
2013-4-6,44,34,31,-100,-100,-100,0,0,100,29.58,29.41,14,-37,19,0.00
2013-4-7,32,10,25,-100,-100,-100,0,0,100,29.78,29.57,17,-1,25,0.00
2013-4-8,26,7,21,-100,-100,-100,0,0,100,29.76,29.38,23,11,34,0.00
2013-4-9,22,6,17,-100,-100,-100,0,0,100,29.66,29.25,29,15,39,0.00
2013-4-10,24,6,18,-100,-100,-100,0,0,100,30.01,29.65,23,10,34,0.00
2013-4-11,26,7,18,-100,-100,-100,0,0,100,30.13,30.00,17,6,26,0.00
2013-4-12,30,8,21,-100,-100,-100,0,0,100,30.16,30.09,16,9,30,0.00
2013-4-13,35,14,26,-100,-100,-100,0,0,100,30.42,30.16,19,11,30,0.00
2013-4-14,43,37,33,-100,-100,-100,0,0,100,30.52,30.42,17,7,23,0.00
2013-4-15,41,29,31,-100,-100,-100,0,0,100,30.47,30.22,11,-10,16,0.00
2013-4-16,41,37,32,-100,-100,-100,0,0,100,30.22,30.09,16,-6,25,0.00
2013-4-17,44,29,28,-100,-100,-100,0,0,100,30.16,30.12,11,-54,17,0.00
2013-4-18,42,32,29,-100,-100,-100,0,0,100,30.16,30.11,10,-10,14,0.00
2013-4-19,44,32,31,-100,-100,-100,0,0,100,30.32,30.15,10,-25,14,0.00
2013-4-20,39,36,34,-100,-100,-100,0,0,100,30.35,30.27,17,-15,23,0.00
2013-4-21,39,36,34,-100,-100,-100,0,0,100,30.36,30.13,25,14,46,0.00
2013-4-22,40,38,36,-100,-100,-100,0,0,100,30.42,30.31,18,11,26,0.00
2013-4-23,45,41,39,-100,-100,-100,0,0,100,30.37,30.26,18,-26,24,0.00
2013-4-24,53,43,35,-100,-100,-100,0,0,100,30.37,29.86,16,-88,26,0.00
2013-4-25,49,43,40,-100,-100,-100,0,0,100,29.86,29.67,24,12,35,0.00
2013-4-26,46,41,37,-100,-100,-100,0,0,100,29.74,29.55,26,10,41,0.00
2013-4-27,41,38,33,-100,-100,-100,0,0,100,29.95,29.57,19,12,32,0.00
2013-4-28,44,40,37,-100,-100,-100,0,0,100,30.19,29.94,19,9,36,0.00
2013-4-29,48,40,32,-100,-100,-100,0,0,100,30.22,30.13,15,-73,17,0.00
2013-4-30,49,38,32,-100,-100,-100,0,0,100,30.13,29.69,11,-65,16,0.00
2013-5-1,42,38,35,-100,-100,-100,0,0,100,29.70,29.49,12,-64,20,0.00
2013-5-2,46,42,38,-100,-100,-100,0,0,100,29.82,29.65,16,-56,20,0.00
2013-5-3,44,40,35,-100,-100,-100,0,0,100,29.93,29.77,12,-23,16,0.00
2013-5-4,45,39,34,-100,-100,-100,0,0,100,30.06,29.75,18,9,28,0.00
2013-5-5,46,39,31,-100,-100,-100,0,0,100,30.20,30.06,12,-44,17,0.00
2013-5-6,46,39,32,-100,-100,-100,0,0,100,30.26,30.20,10,-115,13,0.00
2013-5-7,41,39,37,-100,-100,-100,0,0,100,30.27,30.25,9,-109,12,0.00
2013-5-8,43,39,37,-100,-100,-100,0,0,100,30.27,30.22,7,-81,10,0.00
2013-5-9,43,41,38,-100,-100,-100,0,0,100,30.25,30.20,11,6,16,0.00
2013-5-10,55,45,38,-100,-100,-100,0,0,100,30.21,29.93,21,-36,30,0.00
2013-5-11,47,44,43,-100,-100,-100,0,0,100,29.93,29.54,19,11,31,0.00
2013-5-12,51,48,44,-100,-100,-100,0,0,100,29.54,29.49,17,10,28,0.00
2013-5-13,54,47,41,-100,-100,-100,0,0,100,29.52,29.44,11,-74,17,0.00
2013-5-14,51,43,36,-100,-100,-100,0,0,100,29.70,29.52,11,-94,16,0.00
2013-5-15,48,40,35,-100,-100,-100,0,0,100,29.71,29.59,12,-48,17,0.00
2013-5-16,43,39,38,-100,-100,-100,0,0,100,29.59,29.38,25,13,35,0.00
2013-5-17,43,40,34,-100,-100,-100,0,0,100,29.66,29.42,24,11,37,0.00
2013-5-18,39,28,30,-100,-100,-100,0,0,100,30.25,29.65,22,10,36,0.00
2013-5-19,47,40,33,-100,-100,-100,0,0,100,30.63,30.25,10,-37,18,0.00
2013-5-20,46,41,34,-100,-100,-100,0,0,100,30.66,30.55,12,-129,16,0.00
2013-5-21,45,44,43,-100,-100,-100,0,0,100,30.56,30.26,12,8,17,0.00
2013-5-22,47,45,43,-100,-100,-100,0,0,100,30.27,30.10,15,-13,21,0.00
2013-5-23,46,44,42,-100,-100,-100,0,0,100,30.14,30.10,8,-25,12,0.00
2013-5-24,58,48,41,-100,-100,-100,0,0,100,30.13,30.00,9,-108,10,0.00
2013-5-25,51,44,40,-100,-100,-100,0,0,100,30.01,29.89,11,-22,15,0.00
2013-5-26,44,43,41,-100,-100,-100,0,0,100,29.89,29.81,15,10,21,0.00
2013-5-27,45,44,43,-100,-100,-100,0,0,100,29.82,29.78,14,10,20,0.00
2013-5-28,59,48,41,-100,-100,-100,0,0,100,29.78,29.65,9,-45,12,0.00
2013-5-29,62,54,46,-100,-100,-100,0,0,100,29.78,29.65,7,-137,11,0.00
2013-5-30,59,48,41,-100,-100,-100,0,0,100,30.04,29.77,14,-80,21,0.00
2013-5-31,49,46,43,-100,-100,-100,0,0,100,30.19,30.04,10,-45,13,0.00
2013-6-1,53,48,43,-100,-100,-100,0,0,100,30.22,30.18,14,-29,19,0.00
2013-6-2,47,45,44,-100,-100,-100,0,0,100,30.23,29.96,10,-9,18,0.00
2013-6-3,45,44,44,-100,-100,-100,0,0,100,29.96,29.65,20,11,28,0.00
2013-6-4,47,45,42,-100,-100,-100,0,0,100,29.83,29.63,6,-164,8,0.00
2013-6-5,47,45,43,-100,-100,-100,0,0,100,29.93,29.82,16,-56,23,0.00
2013-6-6,49,46,45,-100,-100,-100,0,0,100,29.85,29.74,22,15,35,0.00
2013-6-7,59,51,47,-100,-100,-100,0,0,100,29.99,29.74,8,-104,14,0.00
2013-6-8,69,55,43,-100,-100,-100,0,0,100,30.19,29.99,12,-165,16,0.00
2013-6-9,70,62,50,-100,-100,-100,0,0,100,30.29,30.19,9,-168,14,0.00
2013-6-10,66,57,44,-100,-100,-100,0,0,100,30.29,30.20,7,-88,13,0.00
2013-6-11,69,60,52,-100,-100,-100,0,0,100,30.21,30.05,9,-95,17,0.00
2013-6-12,60,53,43,-100,-100,-100,0,0,100,30.05,29.95,15,-163,19,0.00
2013-6-13,50,47,45,-100,-100,-100,0,0,100,30.24,30.01,9,-18,15,0.00
2013-6-14,68,53,41,-100,-100,-100,0,0,100,30.29,30.23,7,-101,9,0.00
2013-6-15,56,42,32,-100,-100,-100,0,0,100,30.32,30.26,8,-106,10,0.00
2013-6-16,-200,0,200,-100,-100,-100,0,0,100,30.26,30.17,5,2,8,0.00
2013-6-17,78,61,49,-100,-100,-100,0,0,100,30.17,29.91,7,-386,15,0.00
2013-6-18,69,59,51,-100,-100,-100,0,0,100,29.91,29.79,15,-74,21,0.00
2013-6-19,55,51,48,-100,-100,-100,0,0,100,29.95,29.80,11,-16,17,0.00
2013-6-20,51,48,46,-100,-100,-100,0,0,100,30.02,29.96,7,-51,11,0.00
2013-6-22,47,47,45,-100,-100,-100,0,0,100,29.96,29.70,10,5,18,0.00
2013-6-23,49,47,46,-100,-100,-100,0,0,100,29.70,29.60,13,9,19,0.00
2013-6-24,55,51,48,-100,-100,-100,0,0,100,29.70,29.61,11,6,16,0.00
2013-6-25,69,60,49,-100,-100,-100,0,0,100,29.67,29.61,5,-322,8,0.00
2013-6-26,79,61,54,-100,-100,-100,0,0,100,29.90,29.61,10,-258,17,0.00
2013-6-27,58,53,50,-100,-100,-100,0,0,100,30.11,29.89,11,-69,15,0.00
2013-6-28,59,54,51,-100,-100,-100,0,0,100,30.19,30.11,11,-79,13,0.00
2013-6-29,64,55,46,-100,-100,-100,0,0,100,30.17,30.04,8,-148,10,0.00
2013-6-30,56,51,49,-100,-100,-100,0,0,100,30.08,29.80,19,-61,23,0.00
2013-7-1,54,51,49,-100,-100,-100,0,0,100,29.80,29.52,16,4,24,0.00
2013-7-2,55,51,44,-100,-100,-100,0,0,100,29.89,29.61,7,-76,10,0.00
2013-7-3,57,52,47,-100,-100,-100,0,0,100,30.02,29.88,14,-129,19,0.00
2013-7-4,56,52,49,-100,-100,-100,0,0,100,30.06,29.98,13,-4,18,0.00
2013-7-5,57,52,49,-100,-100,-100,0,0,100,30.06,29.97,9,-66,13,0.00
2013-7-6,55,51,47,-100,-100,-100,0,0,100,29.99,29.69,11,-52,14,0.00
2013-7-7,51,48,46,-100,-100,-100,0,0,100,29.71,29.61,8,-191,10,0.00
2013-7-8,59,52,49,-100,-100,-100,0,0,100,29.90,29.71,9,-174,11,0.00
2013-7-9,64,54,45,-100,-100,-100,0,0,100,30.14,29.89,13,-92,16,0.00
2013-7-10,70,58,47,-100,-100,-100,0,0,100,30.15,29.99,15,-168,24,0.00
2013-7-11,68,60,49,-100,-100,-100,0,0,100,29.99,29.93,8,-167,10,0.00
2013-7-12,60,54,48,-100,-100,-100,0,0,100,29.99,29.95,8,-146,10,0.00
2013-7-13,56,51,46,-100,-100,-100,0,0,100,30.21,29.99,7,-16,8,0.00
2013-7-14,56,54,52,-100,-100,-100,0,0,100,30.35,30.21,7,-99,10,0.00
2013-7-15,61,56,50,-100,-100,-100,0,0,100,30.36,30.27,6,-111,10,0.00
2013-7-16,65,59,55,-100,-100,-100,0,0,100,30.28,30.22,6,-144,9,0.00
2013-7-17,70,64,55,-100,-100,-100,0,0,100,30.22,30.16,8,-226,11,0.00
2013-7-18,72,63,55,-100,-100,-100,0,0,100,30.26,30.17,8,-122,10,0.00
2013-7-19,71,65,60,-100,-100,-100,0,0,100,30.31,30.26,16,-130,19,0.00
2013-7-20,67,64,61,-100,-100,-100,0,0,100,30.27,30.15,30,10,37,0.00
2013-7-21,70,63,53,-100,-100,-100,0,0,100,30.15,30.02,21,-61,32,0.00
2013-7-22,73,68,60,-100,-100,-100,0,0,100,30.14,30.02,21,-16,37,0.00
2013-7-23,72,62,51,-100,-100,-100,0,0,100,30.15,30.09,7,-110,10,0.00
2013-7-24,74,63,54,-100,-100,-100,0,0,100,30.10,29.99,6,-362,7,0.00
2013-7-25,72,62,54,-100,-100,-100,0,0,100,30.08,30.01,6,-134,8,0.00
2013-7-26,60,57,54,-100,-100,-100,0,0,100,30.31,30.09,6,-74,7,0.00
2013-7-27,58,55,53,-100,-100,-100,0,0,100,30.38,30.32,5,-113,8,0.00
2013-7-28,65,58,53,-100,-100,-100,0,0,100,30.34,30.22,7,-268,11,0.00
2013-7-29,67,60,52,-100,-100,-100,0,0,100,30.23,30.19,6,-78,9,0.00
2013-7-30,66,58,51,-100,-100,-100,0,0,100,30.26,30.20,7,-178,9,0.00
2013-7-31,63,59,54,-100,-100,-100,0,0,100,30.23,30.13,14,-48,17,0.00
2013-8-1,56,54,53,-100,-100,-100,0,0,100,30.13,29.93,9,-25,13,0.00
2013-8-2,55,54,53,-100,-100,-100,0,0,100,29.93,29.50,13,-44,23,0.00
2013-8-3,59,56,53,-100,-100,-100,0,0,100,29.89,29.49,23,8,26,0.00
2013-8-4,61,57,54,-100,-100,-100,0,0,100,29.95,29.89,12,-59,14,0.00
2013-8-5,57,54,52,-100,-100,-100,0,0,100,29.95,29.81,12,4,18,0.00
2013-8-6,55,54,52,-100,-100,-100,0,0,100,29.81,29.62,14,7,23,0.00
2013-8-7,55,53,52,-100,-100,-100,0,0,100,29.70,29.65,6,-21,14,0.00
2013-8-8,54,51,46,-100,-100,-100,0,0,100,29.74,29.60,9,-46,16,0.00
2013-8-9,63,56,52,-100,-100,-100,0,0,100,29.73,29.57,8,-357,11,0.00
2013-8-10,62,40,50,-100,-100,-100,0,0,100,29.97,29.74,7,-190,13,0.00
2013-8-11,57,38,52,-100,-100,-100,0,0,100,29.99,29.94,13,-158,25,0.00
2013-8-12,58,56,53,-100,-100,-100,0,0,100,29.99,29.91,11,-322,21,0.00
2013-8-13,58,55,53,-100,-100,-100,0,0,100,30.00,29.98,2,-332,4,0.00
2013-8-14,63,59,52,-100,-100,-100,0,0,100,30.01,29.91,3,-498,6,0.00
2013-8-31,58,56,53,-100,-100,-100,0,0,100,29.95,29.88,0,-999,0,0.00
2013-9-1,58,55,49,-100,-100,-100,0,0,100,29.88,29.72,3,-856,4,0.00
2013-9-2,59,56,55,-100,-100,-100,0,0,100,29.70,29.42,16,-663,22,0.00
2013-9-3,58,55,52,-100,-100,-100,0,0,100,29.40,29.35,13,-620,17,0.00
2013-9-4,58,54,50,-100,-100,-100,0,0,100,29.79,29.44,5,-665,8,0.00
2013-9-5,55,52,51,-100,-100,-100,0,0,100,29.95,29.86,5,-749,7,0.00
2013-9-6,53,52,51,-100,-100,-100,0,0,100,29.80,29.11,0,-999,0,0.00
2013-10-26,45,34,33,-100,-100,-100,0,0,100,30.32,30.06,4,-553,6,0.00
2013-10-27,55,47,44,-100,-100,-100,0,0,100,29.89,29.49,5,-497,8,0.00
2013-10-28,54,44,47,-100,-100,-100,0,0,100,29.49,29.34,17,-695,23,0.00
2013-10-29,45,42,38,-100,-100,-100,0,0,100,29.59,29.15,0,-999,0,0.00
2013-10-30,46,44,42,-100,-100,-100,0,0,100,29.19,28.67,9,-698,11,0.00
2013-10-31,47,44,40,-100,-100,-100,0,0,100,29.69,29.28,8,-748,16,0.00
2013-11-1,44,38,35,-100,-100,-100,0,0,100,30.01,29.78,4,-749,4,0.00
2013-11-10,48,44,42,-100,-100,-100,0,0,100,30.06,29.76,4,-899,9,0.00
2013-11-11,40,38,36,-100,-100,-100,0,0,100,30.00,29.91,11,-921,23,0.00
2013-11-12,43,39,35,-100,-100,-100,0,0,100,30.10,30.02,0,-999,0,0.00
2013-11-13,46,42,35,-100,-100,-100,0,0,100,30.22,30.14,0,-999,0,0.00
2013-11-14,56,52,46,-100,-100,-100,0,0,100,30.12,30.01,16,-439,21,0.00
2013-11-15,45,45,44,-100,-100,-100,0,0,100,30.07,29.93,0,-571,9,0.00
2013-11-16,44,38,33,-100,-100,-100,0,0,100,30.23,30.01,4,-665,21,0.00
2013-11-17,29,29,29,-100,-100,-100,0,0,100,30.20,30.20,2,2,12,0.00
2013-11-19,22,22,22,-100,-100,-100,0,0,100,30.11,30.11,3,3,4,0.00
2013-11-20,27,9,27,-100,-100,-100,0,0,100,29.81,29.65,21,15,35,0.00
2013-11-21,47,36,33,-100,-100,-100,0,0,100,29.64,28.94,16,-831,28,0.00
2013-11-22,42,35,28,-100,-100,-100,0,0,100,29.54,29.03,11,-217,16,0.00
2013-11-23,35,34,32,-100,-100,-100,0,0,100,29.91,29.82,0,-999,0,0.00
2013-11-24,41,40,38,-100,-100,-100,0,0,100,29.93,29.82,3,-908,6,0.00
2013-11-25,41,39,35,-100,-100,-100,0,0,100,29.80,29.70,8,-576,17,0.00
2013-11-26,40,36,34,-100,-100,-100,0,0,100,29.90,29.80,2,-784,5,0.00
2013-11-27,41,35,32,-100,-100,-100,0,0,100,29.85,29.83,5,3,25,0.00
2013-11-29,27,27,27,-100,-100,-100,0,0,100,30.04,30.04,2,2,13,0.00
2013-11-30,25,16,23,-100,-100,-100,0,0,100,30.27,30.14,5,4,25,0.00
2013-12-1,35,34,34,-100,-100,-100,0,0,100,30.35,30.30,5,-748,7,0.00
2013-12-5,41,39,37,-100,-100,-100,0,0,100,30.41,30.28,3,-888,3,0.00
2013-12-6,42,40,39,-100,-100,-100,0,0,100,30.45,30.42,3,-888,3,0.00
2013-12-7,39,34,37,-100,-100,-100,0,0,100,30.46,30.42,4,-874,6,0.00
2013-12-8,40,37,35,-100,-100,-100,0,0,100,30.46,30.34,4,-832,10,0.00
2013-12-9,38,36,33,-100,-100,-100,0,0,100,30.29,30.23,1,-749,2,0.00
2013-12-10,41,40,39,-100,-100,-100,0,0,100,29.95,29.62,0,-999,0,0.00
2013-12-11,40,37,35,-100,-100,-100,0,0,100,29.55,29.43,0,-999,0,0.00
2013-12-12,31,28,26,-100,-100,-100,0,0,100,29.43,29.40,3,-331,8,0.00
2013-12-13,27,26,26,-100,-100,-100,0,0,100,29.12,29.10,6,6,16,0.00
2013-12-15,17,17,17,-100,-100,-100,0,0,100,29.31,29.31,12,12,20,0.00
2013-12-17,25,22,22,-100,-100,-100,0,0,100,30.15,30.10,8,5,13,0.00
2013-12-18,38,29,21,-100,-100,-100,0,0,100,30.34,29.25,3,-624,4,0.00
2013-12-19,38,36,35,-100,-100,-100,0,0,100,29.63,29.44,11,-664,15,0.00
2013-12-20,45,38,35,-100,-100,-100,0,0,100,29.61,29.52,2,-570,3,0.00
2013-12-21,36,32,33,-100,-100,-100,0,0,100,29.60,29.43,7,-915,8,0.00
2013-12-22,40,39,37,-100,-100,-100,0,0,100,29.46,29.44,15,-711,23,0.00
2013-12-23,31,31,31,-100,-100,-100,0,0,100,29.81,29.81,13,13,28,0.00
2013-12-24,35,28,32,-100,-100,-100,0,0,100,29.89,29.56,16,-746,35,0.00
2013-12-25,33,29,32,-100,-100,-100,0,0,100,29.65,29.60,4,-498,11,0.00
2013-12-26,27,26,26,-100,-100,-100,0,0,100,29.68,29.65,2,2,3,0.00
2013-12-27,38,19,38,-100,-100,-100,0,0,100,29.72,29.69,2,-498,5,0.00
2013-12-28,34,23,31,-100,-100,-100,0,0,100,29.86,29.75,2,-570,3,0.00
2013-12-29,38,36,34,-100,-100,-100,0,0,100,29.77,29.52,0,-999,0,0.00
2013-12-30,38,32,36,-100,-100,-100,0,0,100,29.51,29.39,2,-570,4,0.00
2013-12-31,41,26,32,-100,-100,-100,0,0,100,29.50,28.85,19,-459,32,0.00
2014-1-1,44,40,38,-100,-100,-100,0,0,100,29.41,28.84,9,-612,14,0.00
2014-1-2,40,38,36,-100,-100,-100,0,0,100,30.06,29.56,12,-534,20,0.00